sensor_id;sensor_type;location;lat;lon;timestamp;pressure;altitude;pressure_sealevel;temperature;humidity
9307;BME280;4691;47.612;7.610;2023-04-10T00:00:22;99287.66;;;7.09;100.00
9307;BME280;4691;47.612;7.610;2023-04-10T00:02:48;99286.34;;;7.01;100.00
9307;BME280;4691;47.612;7.610;2023-04-10T00:05:13;99283.19;;;6.94;100.00
9307;BME280;4691;47.612;7.610;2023-04-10T00:07:39;99272.88;;;6.88;100.00
9307;BME280;4691;47.612;7.610;2023-04-10T00:10:04;99267.94;;;6.82;100.00
9307;BME280;4691;47.612;7.610;2023-04-10T00:12:29;99269.88;;;6.78;100.00
9307;BME280;4691;47.612;7.610;2023-04-10T00:14:55;99264.72;;;6.75;100.00
9307;BME280;4691;47.612;7.610;2023-04-10T00:17:20;99260.56;;;6.71;100.00
9307;BME280;4691;47.612;7.610;2023-04-10T00:19:46;99258.81;;;6.70;100.00
9307;BME280;4691;47.612;7.610;2023-04-10T00:22:11;99251.97;;;6.66;100.00
9307;BME280;4691;47.612;7.610;2023-04-10T00:24:36;99245.88;;;6.64;100.00
9307;BME280;4691;47.612;7.610;2023-04-10T00:27:01;99246.19;;;6.58;100.00
9307;BME280;4691;47.612;7.610;2023-04-10T00:29:27;99240.81;;;6.59;100.00
9307;BME280;4691;47.612;7.610;2023-04-10T00:31:52;99242.63;;;6.59;100.00
9307;BME280;4691;47.612;7.610;2023-04-10T00:34:17;99241.16;;;6.53;100.00
9307;BME280;4691;47.612;7.610;2023-04-10T00:36:44;99243.09;;;6.49;100.00
9307;BME280;4691;47.612;7.610;2023-04-10T00:39:11;99240.56;;;6.48;100.00
9307;BME280;4691;47.612;7.610;2023-04-10T00:41:36;99240.72;;;6.45;100.00
9307;BME280;4691;47.612;7.610;2023-04-10T00:44:02;99246.09;;;6.43;100.00
9307;BME280;4691;47.612;7.610;2023-04-10T00:46:28;99237.28;;;6.43;100.00
9307;BME280;4691;47.612;7.610;2023-04-10T00:48:54;99240.19;;;6.38;100.00
9307;BME280;4691;47.612;7.610;2023-04-10T00:51:20;99244.47;;;6.41;100.00
9307;BME280;4691;47.612;7.610;2023-04-10T00:53:47;99236.91;;;6.33;100.00
9307;BME280;4691;47.612;7.610;2023-04-10T00:56:15;99229.91;;;6.32;100.00
9307;BME280;4691;47.612;7.610;2023-04-10T00:58:40;99230.03;;;6.29;100.00
9307;BME280;4691;47.612;7.610;2023-04-10T01:01:06;99227.72;;;6.23;100.00
9307;BME280;4691;47.612;7.610;2023-04-10T01:03:32;99224.47;;;6.18;100.00
9307;BME280;4691;47.612;7.610;2023-04-10T01:06:34;99217.59;;;6.14;100.00
9307;BME280;4691;47.612;7.610;2023-04-10T01:09:22;99220.41;;;6.10;100.00
9307;BME280;4691;47.612;7.610;2023-04-10T01:22:37;99235.44;;;5.94;100.00
9307;BME280;4691;47.612;7.610;2023-04-10T01:30:41;99233.69;;;5.93;100.00
9307;BME280;4691;47.612;7.610;2023-04-10T01:33:08;99239.81;;;5.95;100.00
9307;BME280;4691;47.612;7.610;2023-04-10T01:35:36;99236.97;;;5.98;100.00
9307;BME280;4691;47.612;7.610;2023-04-10T01:38:04;99234.44;;;5.97;100.00
9307;BME280;4691;47.612;7.610;2023-04-10T01:40:31;99235.44;;;5.94;100.00
9307;BME280;4691;47.612;7.610;2023-04-10T01:42:59;99233.78;;;5.92;100.00
9307;BME280;4691;47.612;7.610;2023-04-10T01:45:27;99225.19;;;5.86;100.00
9307;BME280;4691;47.612;7.610;2023-04-10T01:47:53;99225.44;;;5.82;100.00
9307;BME280;4691;47.612;7.610;2023-04-10T01:50:21;99225.59;;;5.79;100.00
9307;BME280;4691;47.612;7.610;2023-04-10T01:52:50;99211.78;;;5.72;100.00
9307;BME280;4691;47.612;7.610;2023-04-10T01:55:18;99210.13;;;5.70;100.00
9307;BME280;4691;47.612;7.610;2023-04-10T01:57:44;99208.44;;;5.68;100.00
9307;BME280;4691;47.612;7.610;2023-04-10T02:00:13;99200.38;;;5.70;100.00
9307;BME280;4691;47.612;7.610;2023-04-10T02:02:38;99202.09;;;5.71;100.00
9307;BME280;4691;47.612;7.610;2023-04-10T02:05:04;99203.03;;;5.70;100.00
9307;BME280;4691;47.612;7.610;2023-04-10T02:07:40;99188.00;;;5.71;100.00
9307;BME280;4691;47.612;7.610;2023-04-10T02:10:14;99192.19;;;5.75;100.00
9307;BME280;4691;47.612;7.610;2023-04-10T02:12:52;99185.00;;;5.77;100.00
9307;BME280;4691;47.612;7.610;2023-04-10T02:15:21;99192.16;;;5.92;100.00
9307;BME280;4691;47.612;7.610;2023-04-10T02:19:32;99190.88;;;5.83;100.00
9307;BME280;4691;47.612;7.610;2023-04-10T02:21:57;99194.97;;;5.89;100.00
9307;BME280;4691;47.612;7.610;2023-04-10T02:24:23;99197.47;;;5.92;100.00
9307;BME280;4691;47.612;7.610;2023-04-10T02:26:51;99194.97;;;5.89;100.00
9307;BME280;4691;47.612;7.610;2023-04-10T02:29:17;99190.69;;;5.86;100.00
9307;BME280;4691;47.612;7.610;2023-04-10T02:31:43;99186.41;;;5.84;100.00
9307;BME280;4691;47.612;7.610;2023-04-10T02:34:09;99194.19;;;5.87;100.00
9307;BME280;4691;47.612;7.610;2023-04-10T02:36:36;99192.56;;;5.84;100.00
9307;BME280;4691;47.612;7.610;2023-04-10T02:39:01;99197.19;;;5.81;100.00
9307;BME280;4691;47.612;7.610;2023-04-10T02:41:27;99192.13;;;5.76;100.00
9307;BME280;4691;47.612;7.610;2023-04-10T02:43:52;99189.69;;;5.72;100.00
9307;BME280;4691;47.612;7.610;2023-04-10T02:46:17;99205.63;;;5.72;100.00
9307;BME280;4691;47.612;7.610;2023-04-10T02:48:42;99203.97;;;5.69;100.00
9307;BME280;4691;47.612;7.610;2023-04-10T02:51:08;99199.34;;;5.73;100.00
9307;BME280;4691;47.612;7.610;2023-04-10T02:53:33;99197.31;;;5.78;100.00
9307;BME280;4691;47.612;7.610;2023-04-10T02:55:58;99189.63;;;5.73;100.00
9307;BME280;4691;47.612;7.610;2023-04-10T02:58:23;99187.88;;;5.72;100.00
9307;BME280;4691;47.612;7.610;2023-04-10T03:00:50;99187.03;;;5.72;100.00
9307;BME280;4691;47.612;7.610;2023-04-10T03:03:17;99183.44;;;5.73;100.00
9307;BME280;4691;47.612;7.610;2023-04-10T03:05:43;99181.56;;;5.75;100.00
9307;BME280;4691;47.612;7.610;2023-04-10T03:08:11;99174.38;;;5.77;100.00
9307;BME280;4691;47.612;7.610;2023-04-10T03:10:36;99174.56;;;5.74;100.00
9307;BME280;4691;47.612;7.610;2023-04-10T03:13:01;99167.50;;;5.73;100.00
9307;BME280;4691;47.612;7.610;2023-04-10T03:15:27;99155.28;;;5.70;100.00
9307;BME280;4691;47.612;7.610;2023-04-10T03:17:52;99156.28;;;5.67;100.00
9307;BME280;4691;47.612;7.610;2023-04-10T03:20:17;99146.63;;;5.66;100.00
9307;BME280;4691;47.612;7.610;2023-04-10T03:22:42;99143.91;;;5.68;100.00
9307;BME280;4691;47.612;7.610;2023-04-10T03:25:08;99145.22;;;5.59;100.00
9307;BME280;4691;47.612;7.610;2023-04-10T03:27:33;99143.69;;;5.55;100.00
9307;BME280;4691;47.612;7.610;2023-04-10T03:29:59;99137.75;;;5.50;100.00
9307;BME280;4691;47.612;7.610;2023-04-10T03:32:25;99141.44;;;5.48;100.00
9307;BME280;4691;47.612;7.610;2023-04-10T03:34:52;99142.44;;;5.45;100.00
9307;BME280;4691;47.612;7.610;2023-04-10T03:37:17;99129.19;;;5.45;100.00
9307;BME280;4691;47.612;7.610;2023-04-10T03:39:43;99132.34;;;5.52;100.00
9307;BME280;4691;47.612;7.610;2023-04-10T03:42:09;99137.66;;;5.52;100.00
9307;BME280;4691;47.612;7.610;2023-04-10T03:44:34;99128.63;;;5.56;100.00
9307;BME280;4691;47.612;7.610;2023-04-10T03:46:59;99130.88;;;5.63;100.00
9307;BME280;4691;47.612;7.610;2023-04-10T03:49:25;99134.91;;;5.71;100.00
9307;BME280;4691;47.612;7.610;2023-04-10T03:51:51;99133.81;;;5.75;100.00
9307;BME280;4691;47.612;7.610;2023-04-10T03:54:16;99142.53;;;5.77;100.00
9307;BME280;4691;47.612;7.610;2023-04-10T03:56:42;99140.69;;;5.79;100.00
9307;BME280;4691;47.612;7.610;2023-04-10T03:59:07;99141.88;;;5.73;100.00
9307;BME280;4691;47.612;7.610;2023-04-10T04:01:32;99137.47;;;5.72;100.00
9307;BME280;4691;47.612;7.610;2023-04-10T04:03:57;99144.25;;;5.78;100.00
9307;BME280;4691;47.612;7.610;2023-04-10T04:06:23;99152.22;;;5.78;100.00
9307;BME280;4691;47.612;7.610;2023-04-10T04:08:48;99148.69;;;5.77;100.00
9307;BME280;4691;47.612;7.610;2023-04-10T04:11:13;99152.47;;;5.73;100.00
9307;BME280;4691;47.612;7.610;2023-04-10T04:13:39;99159.09;;;5.64;100.00
9307;BME280;4691;47.612;7.610;2023-04-10T04:16:05;99153.59;;;5.52;100.00
9307;BME280;4691;47.612;7.610;2023-04-10T04:18:30;99138.84;;;5.46;100.00
9307;BME280;4691;47.612;7.610;2023-04-10T04:20:55;99137.44;;;5.39;100.00
9307;BME280;4691;47.612;7.610;2023-04-10T04:23:20;99132.47;;;5.33;100.00
9307;BME280;4691;47.612;7.610;2023-04-10T04:25:46;99122.78;;;5.32;100.00
9307;BME280;4691;47.612;7.610;2023-04-10T04:28:11;99122.72;;;5.33;100.00
9307;BME280;4691;47.612;7.610;2023-04-10T04:30:37;99127.69;;;5.39;100.00
9307;BME280;4691;47.612;7.610;2023-04-10T04:33:03;99125.13;;;5.38;100.00
9307;BME280;4691;47.612;7.610;2023-04-10T04:35:28;99134.00;;;5.37;100.00
9307;BME280;4691;47.612;7.610;2023-04-10T04:37:53;99126.22;;;5.34;100.00
9307;BME280;4691;47.612;7.610;2023-04-10T04:40:18;99126.31;;;5.32;100.00
9307;BME280;4691;47.612;7.610;2023-04-10T04:42:44;99124.69;;;5.30;100.00
9307;BME280;4691;47.612;7.610;2023-04-10T04:45:09;99123.56;;;5.34;100.00
9307;BME280;4691;47.612;7.610;2023-04-10T04:47:35;99130.59;;;5.35;100.00
9307;BME280;4691;47.612;7.610;2023-04-10T04:50:00;99132.94;;;5.41;100.00
9307;BME280;4691;47.612;7.610;2023-04-10T04:52:26;99129.94;;;5.47;100.00
9307;BME280;4691;47.612;7.610;2023-04-10T04:54:52;99138.50;;;5.52;100.00
9307;BME280;4691;47.612;7.610;2023-04-10T04:57:17;99133.53;;;5.46;100.00
9307;BME280;4691;47.612;7.610;2023-04-10T04:59:42;99137.16;;;5.45;100.00
9307;BME280;4691;47.612;7.610;2023-04-10T05:02:07;99132.34;;;5.52;100.00
9307;BME280;4691;47.612;7.610;2023-04-10T05:04:33;99138.06;;;5.61;100.00
9307;BME280;4691;47.612;7.610;2023-04-10T05:06:59;99144.25;;;5.78;100.00
9307;BME280;4691;47.612;7.610;2023-04-10T05:09:24;99156.59;;;5.96;100.00
9307;BME280;4691;47.612;7.610;2023-04-10T05:11:49;99158.44;;;6.27;100.00
9307;BME280;4691;47.612;7.610;2023-04-10T05:14:15;99164.59;;;6.28;100.00
9307;BME280;4691;47.612;7.610;2023-04-10T05:16:40;99177.09;;;6.26;100.00
9307;BME280;4691;47.612;7.610;2023-04-10T05:19:06;99171.47;;;6.32;100.00
9307;BME280;4691;47.612;7.610;2023-04-10T05:21:31;99180.53;;;6.28;100.00
9307;BME280;4691;47.612;7.610;2023-04-10T05:23:56;99169.38;;;6.21;100.00
9307;BME280;4691;47.612;7.610;2023-04-10T05:26:22;99165.78;;;6.22;100.00
9307;BME280;4691;47.612;7.610;2023-04-10T05:28:47;99166.72;;;6.21;100.00
9307;BME280;4691;47.612;7.610;2023-04-10T05:31:12;99158.94;;;6.34;100.00
9307;BME280;4691;47.612;7.610;2023-04-10T05:33:37;99167.78;;;6.50;100.00
9307;BME280;4691;47.612;7.610;2023-04-10T05:36:03;99174.19;;;6.78;100.00
9307;BME280;4691;47.612;7.610;2023-04-10T05:38:28;99182.69;;;6.85;100.00
9307;BME280;4691;47.612;7.610;2023-04-10T05:40:53;99184.13;;;6.90;100.00
9307;BME280;4691;47.612;7.610;2023-04-10T05:43:19;99185.69;;;6.94;100.00
9307;BME280;4691;47.612;7.610;2023-04-10T05:45:45;99182.41;;;7.05;100.00
9307;BME280;4691;47.612;7.610;2023-04-10T05:48:11;99190.31;;;7.07;100.00
9307;BME280;4691;47.612;7.610;2023-04-10T05:50:36;99184.97;;;7.07;100.00
9307;BME280;4691;47.612;7.610;2023-04-10T05:53:01;99190.97;;;7.10;100.00
9307;BME280;4691;47.612;7.610;2023-04-10T05:55:29;99191.28;;;7.20;100.00
9307;BME280;4691;47.612;7.610;2023-04-10T05:57:55;99188.44;;;7.23;100.00
9307;BME280;4691;47.612;7.610;2023-04-10T06:00:20;99187.75;;;7.35;100.00
9307;BME280;4691;47.612;7.610;2023-04-10T06:02:45;99190.53;;;7.48;100.00
9307;BME280;4691;47.612;7.610;2023-04-10T06:05:11;99197.38;;;7.52;100.00
9307;BME280;4691;47.612;7.610;2023-04-10T06:07:36;99196.31;;;7.55;100.00
9307;BME280;4691;47.612;7.610;2023-04-10T06:10:01;99199.41;;;7.63;100.00
9307;BME280;4691;47.612;7.610;2023-04-10T06:12:27;99204.75;;;7.63;100.00
9307;BME280;4691;47.612;7.610;2023-04-10T06:14:52;99215.78;;;7.71;100.00
9307;BME280;4691;47.612;7.610;2023-04-10T06:17:17;99211.88;;;7.77;100.00
9307;BME280;4691;47.612;7.610;2023-04-10T06:19:45;99216.16;;;7.79;100.00
9307;BME280;4691;47.612;7.610;2023-04-10T06:22:10;99220.19;;;7.87;100.00
9307;BME280;4691;47.612;7.610;2023-04-10T06:24:35;99213.50;;;7.94;100.00
9307;BME280;4691;47.612;7.610;2023-04-10T06:27:01;99216.47;;;8.03;100.00
9307;BME280;4691;47.612;7.610;2023-04-10T06:29:26;99221.59;;;8.06;100.00
9307;BME280;4691;47.612;7.610;2023-04-10T06:31:51;99223.22;;;8.09;100.00
9307;BME280;4691;47.612;7.610;2023-04-10T06:34:17;99220.78;;;8.20;100.00
9307;BME280;4691;47.612;7.610;2023-04-10T06:36:42;99220.88;;;8.33;100.00
9307;BME280;4691;47.612;7.610;2023-04-10T06:39:07;99223.47;;;8.49;100.00
9307;BME280;4691;47.612;7.610;2023-04-10T06:41:32;99229.63;;;8.64;100.00
9307;BME280;4691;47.612;7.610;2023-04-10T06:43:58;99234.13;;;8.63;100.00
9307;BME280;4691;47.612;7.610;2023-04-10T06:46:23;99234.38;;;8.73;100.00
9307;BME280;4691;47.612;7.610;2023-04-10T06:48:48;99238.47;;;8.79;100.00
9307;BME280;4691;47.612;7.610;2023-04-10T06:51:13;99239.91;;;8.70;100.00
9307;BME280;4691;47.612;7.610;2023-04-10T06:53:39;99234.47;;;8.71;100.00
9307;BME280;4691;47.612;7.610;2023-04-10T06:56:05;99238.66;;;8.76;100.00
9307;BME280;4691;47.612;7.610;2023-04-10T06:58:31;99232.75;;;8.85;100.00
9307;BME280;4691;47.612;7.610;2023-04-10T07:00:56;99232.31;;;8.91;100.00
9307;BME280;4691;47.612;7.610;2023-04-10T07:03:22;99233.06;;;9.07;100.00
9307;BME280;4691;47.612;7.610;2023-04-10T07:05:48;99232.25;;;9.20;100.00
9307;BME280;4691;47.612;7.610;2023-04-10T07:08:14;99237.19;;;9.26;100.00
9307;BME280;4691;47.612;7.610;2023-04-10T07:10:40;99239.44;;;9.32;100.00
9307;BME280;4691;47.612;7.610;2023-04-10T07:13:05;99231.44;;;9.32;100.00
9307;BME280;4691;47.612;7.610;2023-04-10T07:15:31;99231.13;;;9.36;100.00
9307;BME280;4691;47.612;7.610;2023-04-10T07:17:56;99235.75;;;9.47;100.00
9307;BME280;4691;47.612;7.610;2023-04-10T07:20:21;99234.19;;;9.57;100.00
9307;BME280;4691;47.612;7.610;2023-04-10T07:22:46;99219.47;;;9.65;100.00
9307;BME280;4691;47.612;7.610;2023-04-10T07:25:12;99220.56;;;9.75;100.00
9307;BME280;4691;47.612;7.610;2023-04-10T07:27:38;99218.00;;;9.86;100.00
9307;BME280;4691;47.612;7.610;2023-04-10T07:30:04;99220.88;;;9.96;100.00
9307;BME280;4691;47.612;7.610;2023-04-10T07:32:29;99229.66;;;10.11;100.00
9307;BME280;4691;47.612;7.610;2023-04-10T07:34:54;99236.31;;;10.18;100.00
9307;BME280;4691;47.612;7.610;2023-04-10T07:37:20;99231.22;;;10.28;100.00
9307;BME280;4691;47.612;7.610;2023-04-10T07:39:46;99227.78;;;10.38;100.00
9307;BME280;4691;47.612;7.610;2023-04-10T07:42:11;99231.81;;;10.44;100.00
9307;BME280;4691;47.612;7.610;2023-04-10T07:44:36;99227.97;;;10.48;100.00
9307;BME280;4691;47.612;7.610;2023-04-10T07:47:02;99236.41;;;10.55;100.00
9307;BME280;4691;47.612;7.610;2023-04-10T07:49:27;99228.47;;;10.66;100.00
9307;BME280;4691;47.612;7.610;2023-04-10T07:51:53;99224.69;;;10.81;100.00
9307;BME280;4691;47.612;7.610;2023-04-10T07:54:18;99229.88;;;10.96;100.00
9307;BME280;4691;47.612;7.610;2023-04-10T07:56:43;99214.34;;;11.01;100.00
9307;BME280;4691;47.612;7.610;2023-04-10T07:59:08;99213.16;;;11.05;100.00
9307;BME280;4691;47.612;7.610;2023-04-10T08:01:34;99215.44;;;11.22;100.00
9307;BME280;4691;47.612;7.610;2023-04-10T08:03:59;99211.22;;;11.31;100.00
9307;BME280;4691;47.612;7.610;2023-04-10T08:06:24;99213.00;;;11.43;100.00
9307;BME280;4691;47.612;7.610;2023-04-10T08:08:50;99197.56;;;11.58;100.00
9307;BME280;4691;47.612;7.610;2023-04-10T08:11:27;99211.16;;;11.79;100.00
9307;BME280;4691;47.612;7.610;2023-04-10T08:13:59;99209.16;;;11.94;100.00
9307;BME280;4691;47.612;7.610;2023-04-10T08:16:31;99213.94;;;12.13;100.00
9307;BME280;4691;47.612;7.610;2023-04-10T08:18:58;99206.00;;;12.23;100.00
9307;BME280;4691;47.612;7.610;2023-04-10T08:21:25;99211.66;;;12.31;100.00
9307;BME280;4691;47.612;7.610;2023-04-10T08:23:55;99200.94;;;12.31;100.00
9307;BME280;4691;47.612;7.610;2023-04-10T08:26:21;99209.06;;;12.40;100.00
9307;BME280;4691;47.612;7.610;2023-04-10T08:28:51;99210.06;;;12.39;100.00
9307;BME280;4691;47.612;7.610;2023-04-10T08:31:16;99208.00;;;12.54;100.00
9307;BME280;4691;47.612;7.610;2023-04-10T08:33:42;99207.47;;;12.83;100.00
9307;BME280;4691;47.612;7.610;2023-04-10T08:36:08;99198.91;;;13.00;100.00
9307;BME280;4691;47.612;7.610;2023-04-10T08:38:33;99206.66;;;13.15;100.00
9307;BME280;4691;47.612;7.610;2023-04-10T08:40:58;99200.66;;;13.34;100.00
9307;BME280;4691;47.612;7.610;2023-04-10T08:43:24;99211.81;;;13.50;100.00
9307;BME280;4691;47.612;7.610;2023-04-10T08:45:51;99208.41;;;13.69;100.00
9307;BME280;4691;47.612;7.610;2023-04-10T08:48:18;99206.91;;;13.76;100.00
9307;BME280;4691;47.612;7.610;2023-04-10T08:50:45;99209.88;;;13.94;100.00
9307;BME280;4691;47.612;7.610;2023-04-10T08:53:12;99215.19;;;14.26;100.00
9307;BME280;4691;47.612;7.610;2023-04-10T08:55:41;99209.88;;;14.46;100.00
9307;BME280;4691;47.612;7.610;2023-04-10T08:58:08;99212.56;;;14.76;100.00
9307;BME280;4691;47.612;7.610;2023-04-10T09:00:35;99208.13;;;15.06;100.00
9307;BME280;4691;47.612;7.610;2023-04-10T09:03:03;99214.63;;;14.94;100.00
9307;BME280;4691;47.612;7.610;2023-04-10T09:05:29;99202.59;;;14.98;100.00
9307;BME280;4691;47.612;7.610;2023-04-10T09:07:55;99201.31;;;15.02;100.00
9307;BME280;4691;47.612;7.610;2023-04-10T09:10:22;99203.03;;;15.03;100.00
9307;BME280;4691;47.612;7.610;2023-04-10T09:12:48;99212.63;;;14.86;100.00
9307;BME280;4691;47.612;7.610;2023-04-10T09:15:14;99207.72;;;15.11;100.00
9307;BME280;4691;47.612;7.610;2023-04-10T09:18:00;99210.03;;;14.85;100.00
9307;BME280;4691;47.612;7.610;2023-04-10T09:20:27;99202.69;;;14.87;100.00
9307;BME280;4691;47.612;7.610;2023-04-10T09:22:52;99213.47;;;14.87;100.00
9307;BME280;4691;47.612;7.610;2023-04-10T09:25:31;99208.22;;;14.95;100.00
9307;BME280;4691;47.612;7.610;2023-04-10T09:28:02;99203.19;;;15.31;100.00
9307;BME280;4691;47.612;7.610;2023-04-10T09:30:39;99196.41;;;15.27;100.00
9307;BME280;4691;47.612;7.610;2023-04-10T09:33:22;99205.19;;;15.29;100.00
9307;BME280;4691;47.612;7.610;2023-04-10T09:35:48;99189.16;;;15.66;100.00
9307;BME280;4691;47.612;7.610;2023-04-10T09:38:15;99195.84;;;15.72;100.00
9307;BME280;4691;47.612;7.610;2023-04-10T09:40:41;99199.09;;;15.85;100.00
9307;BME280;4691;47.612;7.610;2023-04-10T09:43:24;99198.22;;;16.14;100.00
9307;BME280;4691;47.612;7.610;2023-04-10T09:45:54;99194.81;;;16.49;100.00
9307;BME280;4691;47.612;7.610;2023-04-10T09:48:21;99192.94;;;16.22;100.00
9307;BME280;4691;47.612;7.610;2023-04-10T09:50:46;99202.22;;;16.84;100.00
9307;BME280;4691;47.612;7.610;2023-04-10T09:53:16;99179.59;;;17.67;100.00
9307;BME280;4691;47.612;7.610;2023-04-10T09:55:44;99166.31;;;18.52;100.00
9307;BME280;4691;47.612;7.610;2023-04-10T09:58:10;99131.34;;;19.42;100.00
9307;BME280;4691;47.612;7.610;2023-04-10T10:00:41;99107.38;;;20.27;100.00
9307;BME280;4691;47.612;7.610;2023-04-10T10:03:12;99101.16;;;20.50;100.00
9307;BME280;4691;47.612;7.610;2023-04-10T10:05:40;99079.97;;;21.07;100.00
9307;BME280;4691;47.612;7.610;2023-04-10T10:08:07;99057.03;;;22.45;100.00
9307;BME280;4691;47.612;7.610;2023-04-10T10:10:39;99031.63;;;23.39;100.00
9307;BME280;4691;47.612;7.610;2023-04-10T10:13:07;99039.88;;;24.37;100.00
9307;BME280;4691;47.612;7.610;2023-04-10T10:15:50;98989.06;;;24.49;100.00
9307;BME280;4691;47.612;7.610;2023-04-10T10:18:24;98976.06;;;24.51;100.00
9307;BME280;4691;47.612;7.610;2023-04-10T10:20:52;98972.53;;;23.74;100.00
9307;BME280;4691;47.612;7.610;2023-04-10T10:23:18;98995.22;;;24.16;100.00
9307;BME280;4691;47.612;7.610;2023-04-10T10:25:44;98973.34;;;24.16;100.00
9307;BME280;4691;47.612;7.610;2023-04-10T10:28:12;98983.03;;;23.49;100.00
9307;BME280;4691;47.612;7.610;2023-04-10T10:30:38;99004.25;;;23.25;100.00
9307;BME280;4691;47.612;7.610;2023-04-10T10:33:06;98993.28;;;23.19;100.00
9307;BME280;4691;47.612;7.610;2023-04-10T10:35:33;98981.88;;;23.65;100.00
9307;BME280;4691;47.612;7.610;2023-04-10T10:38:01;98992.72;;;24.21;100.00
9307;BME280;4691;47.612;7.610;2023-04-10T10:43:19;98959.25;;;24.67;100.00
9307;BME280;4691;47.612;7.610;2023-04-10T10:45:56;98964.28;;;24.09;100.00
9307;BME280;4691;47.612;7.610;2023-04-10T10:48:24;98989.09;;;24.14;100.00
9307;BME280;4691;47.612;7.610;2023-04-10T10:50:56;98971.53;;;24.37;100.00
9307;BME280;4691;47.612;7.610;2023-04-10T10:53:42;98966.69;;;24.25;100.00
9307;BME280;4691;47.612;7.610;2023-04-10T11:01:10;98940.28;;;24.46;100.00
9307;BME280;4691;47.612;7.610;2023-04-10T11:03:36;98932.13;;;24.72;100.00
9307;BME280;4691;47.612;7.610;2023-04-10T11:06:09;98927.41;;;24.40;100.00
9307;BME280;4691;47.612;7.610;2023-04-10T11:08:40;98947.78;;;24.30;100.00
9307;BME280;4691;47.612;7.610;2023-04-10T11:11:14;98929.28;;;24.26;100.00
9307;BME280;4691;47.612;7.610;2023-04-10T11:16:20;98948.13;;;24.14;100.00
9307;BME280;4691;47.612;7.610;2023-04-10T11:21:22;98926.03;;;24.64;100.00
9307;BME280;4691;47.612;7.610;2023-04-10T11:28:57;98907.94;;;24.63;100.00
9307;BME280;4691;47.612;7.610;2023-04-10T11:31:23;98959.94;;;25.03;100.00
9307;BME280;4691;47.612;7.610;2023-04-10T11:34:00;98891.31;;;25.37;100.00
9307;BME280;4691;47.612;7.610;2023-04-10T11:36:26;98947.22;;;26.01;100.00
9307;BME280;4691;47.612;7.610;2023-04-10T11:39:05;98865.44;;;26.75;100.00
9307;BME280;4691;47.612;7.610;2023-04-10T11:41:34;98848.41;;;26.91;100.00
9307;BME280;4691;47.612;7.610;2023-04-10T11:44:05;98883.19;;;26.98;100.00
9307;BME280;4691;47.612;7.610;2023-04-10T11:46:37;98798.47;;;27.63;100.00
9307;BME280;4691;47.612;7.610;2023-04-10T11:49:06;98833.84;;;27.71;100.00
9307;BME280;4691;47.612;7.610;2023-04-10T11:51:32;98809.38;;;27.33;100.00
9307;BME280;4691;47.612;7.610;2023-04-10T11:54:11;98810.25;;;27.33;100.00
9307;BME280;4691;47.612;7.610;2023-04-10T11:56:38;98838.22;;;26.99;100.00
9307;BME280;4691;47.612;7.610;2023-04-10T11:59:04;98835.50;;;26.35;100.00
9307;BME280;4691;47.612;7.610;2023-04-10T12:01:35;98842.63;;;26.43;100.00
9307;BME280;4691;47.612;7.610;2023-04-10T12:04:01;98855.16;;;26.32;100.00
9307;BME280;4691;47.612;7.610;2023-04-10T12:06:27;98831.16;;;26.59;100.00
9307;BME280;4691;47.612;7.610;2023-04-10T12:08:53;98808.09;;;27.35;100.00
9307;BME280;4691;47.612;7.610;2023-04-10T12:11:23;98809.28;;;26.53;100.00
9307;BME280;4691;47.612;7.610;2023-04-10T12:13:54;98853.38;;;26.76;100.00
9307;BME280;4691;47.612;7.610;2023-04-10T12:16:20;98800.31;;;27.88;100.00
9307;BME280;4691;47.612;7.610;2023-04-10T12:18:45;98762.28;;;27.66;100.00
9307;BME280;4691;47.612;7.610;2023-04-10T12:21:11;98767.38;;;27.32;100.00
9307;BME280;4691;47.612;7.610;2023-04-10T12:23:37;98800.09;;;26.65;100.00
9307;BME280;4691;47.612;7.610;2023-04-10T12:26:17;98757.63;;;26.75;100.00
9307;BME280;4691;47.612;7.610;2023-04-10T12:28:53;98773.69;;;26.71;100.00
9307;BME280;4691;47.612;7.610;2023-04-10T12:31:29;98809.09;;;26.16;100.00
9307;BME280;4691;47.612;7.610;2023-04-10T12:33:54;98841.88;;;25.84;100.00
9307;BME280;4691;47.612;7.610;2023-04-10T12:36:24;98833.16;;;25.55;100.00
9307;BME280;4691;47.612;7.610;2023-04-10T12:38:54;98833.44;;;25.34;100.00
9307;BME280;4691;47.612;7.610;2023-04-10T12:41:21;98833.88;;;25.04;100.00
9307;BME280;4691;47.612;7.610;2023-04-10T12:43:52;98829.25;;;25.05;100.00
9307;BME280;4691;47.612;7.610;2023-04-10T12:46:28;98832.84;;;24.78;100.00
9307;BME280;4691;47.612;7.610;2023-04-10T12:48:54;98823.41;;;24.61;100.00
9307;BME280;4691;47.612;7.610;2023-04-10T12:51:51;98845.25;;;24.81;100.00
9307;BME280;4691;47.612;7.610;2023-04-10T12:54:30;98843.56;;;25.33;100.00
9307;BME280;4691;47.612;7.610;2023-04-10T12:56:56;98854.13;;;24.90;100.00
9307;BME280;4691;47.612;7.610;2023-04-10T12:59:22;98826.25;;;25.46;100.00
9307;BME280;4691;47.612;7.610;2023-04-10T13:01:47;98815.81;;;26.20;100.00
9307;BME280;4691;47.612;7.610;2023-04-10T13:04:13;98772.34;;;26.99;100.00
9307;BME280;4691;47.612;7.610;2023-04-10T13:06:45;98773.59;;;27.03;100.00
9307;BME280;4691;47.612;7.610;2023-04-10T13:09:11;98788.47;;;26.70;100.00
9307;BME280;4691;47.612;7.610;2023-04-10T13:11:37;98772.41;;;26.17;100.00
9307;BME280;4691;47.612;7.610;2023-04-10T13:14:02;98798.00;;;25.59;100.00
9307;BME280;4691;47.612;7.610;2023-04-10T13:16:28;98825.72;;;24.64;100.00
9307;BME280;4691;47.612;7.610;2023-04-10T13:18:53;98811.16;;;24.30;100.00
9307;BME280;4691;47.612;7.610;2023-04-10T13:21:18;98826.28;;;24.26;100.00
9307;BME280;4691;47.612;7.610;2023-04-10T13:23:47;98840.50;;;23.95;100.00
9307;BME280;4691;47.612;7.610;2023-04-10T13:26:13;98837.56;;;23.90;100.00
9307;BME280;4691;47.612;7.610;2023-04-10T13:28:38;98846.81;;;23.96;100.00
9307;BME280;4691;47.612;7.610;2023-04-10T13:31:03;98859.44;;;24.03;100.00
9307;BME280;4691;47.612;7.610;2023-04-10T13:33:29;98822.91;;;24.18;100.00
9307;BME280;4691;47.612;7.610;2023-04-10T13:35:54;98863.63;;;24.06;100.00
9307;BME280;4691;47.612;7.610;2023-04-10T13:38:19;98829.44;;;23.62;100.00
9307;BME280;4691;47.612;7.610;2023-04-10T13:40:44;98825.47;;;23.23;100.00
9307;BME280;4691;47.612;7.610;2023-04-10T13:43:10;98846.56;;;22.36;100.00
9307;BME280;4691;47.612;7.610;2023-04-10T13:45:35;98843.13;;;22.28;100.00
9307;BME280;4691;47.612;7.610;2023-04-10T13:48:00;98865.59;;;21.79;100.00
9307;BME280;4691;47.612;7.610;2023-04-10T13:50:26;98843.06;;;22.06;100.00
9307;BME280;4691;47.612;7.610;2023-04-10T13:52:51;98852.97;;;21.92;100.00